sensor_id;sensor_type;location;lat;lon;timestamp;P1;durP1;ratioP1;P2;durP2;ratioP2
32038;SDS011;18549;42.286;22.688;2022-11-21T00:01:14;17.23;;;11.10;;
32038;SDS011;18549;42.286;22.688;2022-11-21T00:03:42;19.77;;;12.27;;
32038;SDS011;18549;42.286;22.688;2022-11-21T00:06:09;17.13;;;12.53;;
32038;SDS011;18549;42.286;22.688;2022-11-21T00:08:36;18.63;;;13.37;;
32038;SDS011;18549;42.286;22.688;2022-11-21T00:11:03;16.93;;;12.40;;
32038;SDS011;18549;42.286;22.688;2022-11-21T00:13:29;17.00;;;11.87;;
32038;SDS011;18549;42.286;22.688;2022-11-21T00:16:02;16.63;;;11.83;;
32038;SDS011;18549;42.286;22.688;2022-11-21T00:18:30;11.90;;;9.87;;
32038;SDS011;18549;42.286;22.688;2022-11-21T00:21:01;17.90;;;11.00;;
32038;SDS011;18549;42.286;22.688;2022-11-21T00:23:29;14.77;;;9.23;;
32038;SDS011;18549;42.286;22.688;2022-11-21T00:25:56;16.03;;;10.13;;
32038;SDS011;18549;42.286;22.688;2022-11-21T00:28:22;14.37;;;9.87;;
32038;SDS011;18549;42.286;22.688;2022-11-21T00:30:49;19.90;;;9.90;;
32038;SDS011;18549;42.286;22.688;2022-11-21T00:33:17;13.67;;;8.50;;
32038;SDS011;18549;42.286;22.688;2022-11-21T00:35:44;13.00;;;9.50;;
32038;SDS011;18549;42.286;22.688;2022-11-21T00:38:10;11.37;;;8.00;;
32038;SDS011;18549;42.286;22.688;2022-11-21T00:40:37;10.43;;;8.03;;
32038;SDS011;18549;42.286;22.688;2022-11-21T00:43:04;14.67;;;8.50;;
32038;SDS011;18549;42.286;22.688;2022-11-21T00:45:30;17.50;;;9.50;;
32038;SDS011;18549;42.286;22.688;2022-11-21T00:47:57;12.43;;;8.17;;
32038;SDS011;18549;42.286;22.688;2022-11-21T00:50:25;13.13;;;8.13;;
32038;SDS011;18549;42.286;22.688;2022-11-21T00:52:53;12.33;;;7.43;;
32038;SDS011;18549;42.286;22.688;2022-11-21T00:55:21;12.33;;;6.80;;
32038;SDS011;18549;42.286;22.688;2022-11-21T00:57:48;14.27;;;6.90;;
32038;SDS011;18549;42.286;22.688;2022-11-21T01:00:15;13.33;;;6.77;;
32038;SDS011;18549;42.286;22.688;2022-11-21T01:02:42;14.73;;;5.90;;
32038;SDS011;18549;42.286;22.688;2022-11-21T01:05:09;14.25;;;6.03;;
32038;SDS011;18549;42.286;22.688;2022-11-21T01:07:37;12.17;;;5.53;;
32038;SDS011;18549;42.286;22.688;2022-11-21T01:10:04;13.02;;;5.30;;
32038;SDS011;18549;42.286;22.688;2022-11-21T01:12:32;14.77;;;5.77;;
32038;SDS011;18549;42.286;22.688;2022-11-21T01:14:58;9.83;;;4.37;;
32038;SDS011;18549;42.286;22.688;2022-11-21T01:17:25;12.47;;;3.97;;
32038;SDS011;18549;42.286;22.688;2022-11-21T01:19:52;10.83;;;5.20;;
32038;SDS011;18549;42.286;22.688;2022-11-21T01:22:19;9.13;;;5.07;;
32038;SDS011;18549;42.286;22.688;2022-11-21T01:24:47;8.80;;;3.60;;
32038;SDS011;18549;42.286;22.688;2022-11-21T01:27:13;9.67;;;4.60;;
32038;SDS011;18549;42.286;22.688;2022-11-21T01:29:40;9.67;;;4.13;;
32038;SDS011;18549;42.286;22.688;2022-11-21T01:32:07;9.00;;;4.70;;
32038;SDS011;18549;42.286;22.688;2022-11-21T01:34:34;19.00;;;6.93;;
32038;SDS011;18549;42.286;22.688;2022-11-21T01:37:00;15.30;;;6.07;;
32038;SDS011;18549;42.286;22.688;2022-11-21T01:39:27;13.83;;;6.07;;
32038;SDS011;18549;42.286;22.688;2022-11-21T01:41:55;11.03;;;4.93;;
32038;SDS011;18549;42.286;22.688;2022-11-21T01:44:23;10.30;;;4.70;;
32038;SDS011;18549;42.286;22.688;2022-11-21T01:46:51;14.27;;;5.07;;
32038;SDS011;18549;42.286;22.688;2022-11-21T01:49:19;8.40;;;4.30;;
32038;SDS011;18549;42.286;22.688;2022-11-21T01:51:49;5.50;;;3.60;;
32038;SDS011;18549;42.286;22.688;2022-11-21T01:54:20;7.13;;;4.00;;
32038;SDS011;18549;42.286;22.688;2022-11-21T01:56:50;11.23;;;5.07;;
32038;SDS011;18549;42.286;22.688;2022-11-21T01:59:24;8.43;;;4.57;;
32038;SDS011;18549;42.286;22.688;2022-11-21T02:01:54;11.93;;;5.30;;
32038;SDS011;18549;42.286;22.688;2022-11-21T02:04:23;10.63;;;5.40;;
32038;SDS011;18549;42.286;22.688;2022-11-21T02:06:53;10.20;;;5.13;;
32038;SDS011;18549;42.286;22.688;2022-11-21T02:09:20;9.43;;;4.30;;
32038;SDS011;18549;42.286;22.688;2022-11-21T02:11:48;13.20;;;5.60;;
32038;SDS011;18549;42.286;22.688;2022-11-21T02:14:17;9.00;;;5.83;;
32038;SDS011;18549;42.286;22.688;2022-11-21T02:16:46;11.00;;;6.63;;
32038;SDS011;18549;42.286;22.688;2022-11-21T02:19:14;14.33;;;9.07;;
32038;SDS011;18549;42.286;22.688;2022-11-21T02:21:54;14.93;;;7.93;;
32038;SDS011;18549;42.286;22.688;2022-11-21T02:24:28;19.17;;;9.67;;
32038;SDS011;18549;42.286;22.688;2022-11-21T02:27:03;21.57;;;8.33;;
32038;SDS011;18549;42.286;22.688;2022-11-21T02:29:30;12.90;;;7.73;;
32038;SDS011;18549;42.286;22.688;2022-11-21T02:31:58;16.43;;;7.70;;
32038;SDS011;18549;42.286;22.688;2022-11-21T02:34:25;13.18;;;6.78;;
32038;SDS011;18549;42.286;22.688;2022-11-21T02:36:52;14.17;;;5.37;;
32038;SDS011;18549;42.286;22.688;2022-11-21T02:39:20;16.97;;;6.60;;
32038;SDS011;18549;42.286;22.688;2022-11-21T02:41:50;11.33;;;5.67;;
32038;SDS011;18549;42.286;22.688;2022-11-21T02:44:25;10.20;;;4.87;;
32038;SDS011;18549;42.286;22.688;2022-11-21T02:46:55;15.63;;;6.30;;
32038;SDS011;18549;42.286;22.688;2022-11-21T02:49:30;7.10;;;4.87;;
32038;SDS011;18549;42.286;22.688;2022-11-21T02:52:05;11.63;;;6.70;;
32038;SDS011;18549;42.286;22.688;2022-11-21T02:54:32;9.57;;;5.27;;
32038;SDS011;18549;42.286;22.688;2022-11-21T02:56:58;14.63;;;6.50;;
32038;SDS011;18549;42.286;22.688;2022-11-21T02:59:26;7.97;;;5.53;;
32038;SDS011;18549;42.286;22.688;2022-11-21T03:01:53;14.73;;;6.10;;
32038;SDS011;18549;42.286;22.688;2022-11-21T03:04:23;10.20;;;5.30;;
32038;SDS011;18549;42.286;22.688;2022-11-21T03:06:50;5.60;;;4.27;;
32038;SDS011;18549;42.286;22.688;2022-11-21T03:09:17;12.50;;;4.90;;
32038;SDS011;18549;42.286;22.688;2022-11-21T03:11:44;8.90;;;4.03;;
32038;SDS011;18549;42.286;22.688;2022-11-21T03:14:10;9.40;;;4.80;;
32038;SDS011;18549;42.286;22.688;2022-11-21T03:16:39;16.03;;;5.47;;
32038;SDS011;18549;42.286;22.688;2022-11-21T03:19:05;16.03;;;6.47;;
32038;SDS011;18549;42.286;22.688;2022-11-21T03:21:32;14.17;;;6.83;;
32038;SDS011;18549;42.286;22.688;2022-11-21T03:23:59;10.83;;;5.70;;
32038;SDS011;18549;42.286;22.688;2022-11-21T03:26:26;11.60;;;5.90;;
32038;SDS011;18549;42.286;22.688;2022-11-21T03:28:53;14.63;;;7.90;;
32038;SDS011;18549;42.286;22.688;2022-11-21T03:31:19;15.30;;;7.93;;
32038;SDS011;18549;42.286;22.688;2022-11-21T03:33:47;15.10;;;7.63;;
32038;SDS011;18549;42.286;22.688;2022-11-21T03:36:14;16.73;;;8.20;;
32038;SDS011;18549;42.286;22.688;2022-11-21T03:38:41;10.20;;;6.17;;
32038;SDS011;18549;42.286;22.688;2022-11-21T03:41:08;17.40;;;6.77;;
32038;SDS011;18549;42.286;22.688;2022-11-21T03:43:53;10.00;;;5.23;;
32038;SDS011;18549;42.286;22.688;2022-11-21T03:46:20;11.17;;;5.63;;
32038;SDS011;18549;42.286;22.688;2022-11-21T03:48:48;17.03;;;7.07;;
32038;SDS011;18549;42.286;22.688;2022-11-21T03:51:15;21.10;;;8.33;;
32038;SDS011;18549;42.286;22.688;2022-11-21T03:53:41;20.73;;;9.23;;
32038;SDS011;18549;42.286;22.688;2022-11-21T03:56:08;21.23;;;8.80;;
32038;SDS011;18549;42.286;22.688;2022-11-21T03:58:35;15.87;;;6.30;;
32038;SDS011;18549;42.286;22.688;2022-11-21T04:01:02;18.07;;;6.00;;
32038;SDS011;18549;42.286;22.688;2022-11-21T04:03:29;9.40;;;3.93;;
32038;SDS011;18549;42.286;22.688;2022-11-21T04:05:57;11.07;;;4.77;;
32038;SDS011;18549;42.286;22.688;2022-11-21T04:08:24;14.60;;;6.20;;
32038;SDS011;18549;42.286;22.688;2022-11-21T04:10:52;12.37;;;5.03;;
32038;SDS011;18549;42.286;22.688;2022-11-21T04:13:19;11.43;;;5.43;;
32038;SDS011;18549;42.286;22.688;2022-11-21T04:15:47;18.27;;;4.40;;
32038;SDS011;18549;42.286;22.688;2022-11-21T04:18:13;14.07;;;6.17;;
32038;SDS011;18549;42.286;22.688;2022-11-21T04:20:40;14.07;;;6.83;;
32038;SDS011;18549;42.286;22.688;2022-11-21T04:23:08;17.30;;;6.80;;
32038;SDS011;18549;42.286;22.688;2022-11-21T04:25:35;19.27;;;6.20;;
32038;SDS011;18549;42.286;22.688;2022-11-21T04:28:02;7.53;;;4.97;;
32038;SDS011;18549;42.286;22.688;2022-11-21T04:30:30;11.93;;;5.97;;
32038;SDS011;18549;42.286;22.688;2022-11-21T04:32:59;15.00;;;6.80;;
32038;SDS011;18549;42.286;22.688;2022-11-21T04:35:25;13.23;;;6.03;;
32038;SDS011;18549;42.286;22.688;2022-11-21T04:37:52;11.87;;;5.63;;
32038;SDS011;18549;42.286;22.688;2022-11-21T04:40:20;15.33;;;6.43;;
32038;SDS011;18549;42.286;22.688;2022-11-21T04:42:47;9.57;;;6.27;;
32038;SDS011;18549;42.286;22.688;2022-11-21T04:45:14;7.93;;;5.40;;
32038;SDS011;18549;42.286;22.688;2022-11-21T04:47:43;15.30;;;7.47;;
32038;SDS011;18549;42.286;22.688;2022-11-21T04:50:12;18.33;;;8.60;;
32038;SDS011;18549;42.286;22.688;2022-11-21T04:52:40;34.73;;;14.80;;
32038;SDS011;18549;42.286;22.688;2022-11-21T04:55:07;31.10;;;13.63;;
32038;SDS011;18549;42.286;22.688;2022-11-21T04:57:36;23.60;;;10.90;;
32038;SDS011;18549;42.286;22.688;2022-11-21T05:00:03;23.23;;;10.50;;
32038;SDS011;18549;42.286;22.688;2022-11-21T05:02:31;20.27;;;8.87;;
32038;SDS011;18549;42.286;22.688;2022-11-21T05:04:58;16.73;;;10.30;;
32038;SDS011;18549;42.286;22.688;2022-11-21T05:07:25;13.97;;;8.77;;
32038;SDS011;18549;42.286;22.688;2022-11-21T05:09:51;15.77;;;7.20;;
32038;SDS011;18549;42.286;22.688;2022-11-21T05:12:18;14.33;;;6.87;;
32038;SDS011;18549;42.286;22.688;2022-11-21T05:15:04;16.30;;;7.33;;
32038;SDS011;18549;42.286;22.688;2022-11-21T05:17:31;20.80;;;7.23;;
32038;SDS011;18549;42.286;22.688;2022-11-21T05:19:58;17.97;;;8.60;;
32038;SDS011;18549;42.286;22.688;2022-11-21T05:22:25;17.33;;;8.90;;
32038;SDS011;18549;42.286;22.688;2022-11-21T05:24:52;19.77;;;7.97;;
32038;SDS011;18549;42.286;22.688;2022-11-21T05:27:19;16.63;;;6.60;;
32038;SDS011;18549;42.286;22.688;2022-11-21T05:29:46;15.57;;;6.43;;
32038;SDS011;18549;42.286;22.688;2022-11-21T05:32:14;12.97;;;5.93;;
32038;SDS011;18549;42.286;22.688;2022-11-21T05:34:40;18.23;;;6.27;;
32038;SDS011;18549;42.286;22.688;2022-11-21T05:37:07;14.60;;;6.50;;
32038;SDS011;18549;42.286;22.688;2022-11-21T05:39:34;11.73;;;5.53;;
32038;SDS011;18549;42.286;22.688;2022-11-21T05:42:01;11.93;;;5.57;;
32038;SDS011;18549;42.286;22.688;2022-11-21T05:44:27;11.80;;;5.83;;
32038;SDS011;18549;42.286;22.688;2022-11-21T05:46:53;14.70;;;7.23;;
32038;SDS011;18549;42.286;22.688;2022-11-21T05:49:21;20.77;;;9.37;;
32038;SDS011;18549;42.286;22.688;2022-11-21T05:51:48;26.77;;;11.17;;
32038;SDS011;18549;42.286;22.688;2022-11-21T05:54:15;12.60;;;5.73;;
32038;SDS011;18549;42.286;22.688;2022-11-21T05:56:42;16.27;;;6.37;;
32038;SDS011;18549;42.286;22.688;2022-11-21T05:59:09;11.07;;;5.13;;
32038;SDS011;18549;42.286;22.688;2022-11-21T06:01:36;13.67;;;5.20;;
32038;SDS011;18549;42.286;22.688;2022-11-21T06:04:22;12.27;;;6.07;;
32038;SDS011;18549;42.286;22.688;2022-11-21T06:06:49;17.40;;;6.40;;
32038;SDS011;18549;42.286;22.688;2022-11-21T06:09:16;17.97;;;8.50;;
32038;SDS011;18549;42.286;22.688;2022-11-21T06:11:42;16.50;;;9.30;;
32038;SDS011;18549;42.286;22.688;2022-11-21T06:14:09;20.80;;;9.43;;
32038;SDS011;18549;42.286;22.688;2022-11-21T06:16:36;12.23;;;8.27;;
32038;SDS011;18549;42.286;22.688;2022-11-21T06:19:03;19.20;;;9.43;;
32038;SDS011;18549;42.286;22.688;2022-11-21T06:21:31;21.33;;;8.10;;
32038;SDS011;18549;42.286;22.688;2022-11-21T06:24:01;13.23;;;6.70;;
32038;SDS011;18549;42.286;22.688;2022-11-21T06:26:30;15.17;;;7.80;;
32038;SDS011;18549;42.286;22.688;2022-11-21T06:28:56;19.30;;;8.17;;
32038;SDS011;18549;42.286;22.688;2022-11-21T06:31:24;19.83;;;4.30;;
32038;SDS011;18549;42.286;22.688;2022-11-21T06:33:52;13.80;;;4.97;;
32038;SDS011;18549;42.286;22.688;2022-11-21T06:36:20;19.77;;;5.53;;
32038;SDS011;18549;42.286;22.688;2022-11-21T06:38:48;10.87;;;5.03;;
32038;SDS011;18549;42.286;22.688;2022-11-21T06:41:15;17.37;;;8.80;;
32038;SDS011;18549;42.286;22.688;2022-11-21T06:43:44;14.50;;;9.37;;
32038;SDS011;18549;42.286;22.688;2022-11-21T06:46:11;11.07;;;4.20;;
32038;SDS011;18549;42.286;22.688;2022-11-21T06:48:41;11.07;;;3.00;;
32038;SDS011;18549;42.286;22.688;2022-11-21T06:51:10;7.30;;;3.23;;
32038;SDS011;18549;42.286;22.688;2022-11-21T06:53:38;18.20;;;3.37;;
32038;SDS011;18549;42.286;22.688;2022-11-21T06:56:06;8.30;;;3.03;;
32038;SDS011;18549;42.286;22.688;2022-11-21T06:58:33;10.80;;;3.00;;
32038;SDS011;18549;42.286;22.688;2022-11-21T07:01:02;6.30;;;3.03;;
32038;SDS011;18549;42.286;22.688;2022-11-21T07:03:30;8.43;;;3.80;;
32038;SDS011;18549;42.286;22.688;2022-11-21T07:05:58;13.00;;;3.27;;
32038;SDS011;18549;42.286;22.688;2022-11-21T07:08:26;9.13;;;3.80;;
32038;SDS011;18549;42.286;22.688;2022-11-21T07:10:53;15.60;;;4.93;;
32038;SDS011;18549;42.286;22.688;2022-11-21T07:13:21;15.93;;;6.33;;
32038;SDS011;18549;42.286;22.688;2022-11-21T07:15:48;12.20;;;7.13;;
32038;SDS011;18549;42.286;22.688;2022-11-21T07:18:16;13.60;;;6.60;;
32038;SDS011;18549;42.286;22.688;2022-11-21T07:20:43;5.30;;;3.77;;
32038;SDS011;18549;42.286;22.688;2022-11-21T07:23:11;6.00;;;4.03;;
32038;SDS011;18549;42.286;22.688;2022-11-21T07:25:38;4.07;;;1.70;;
32038;SDS011;18549;42.286;22.688;2022-11-21T07:28:05;5.63;;;2.13;;
32038;SDS011;18549;42.286;22.688;2022-11-21T07:30:35;8.47;;;2.97;;
32038;SDS011;18549;42.286;22.688;2022-11-21T07:33:03;20.43;;;4.03;;
32038;SDS011;18549;42.286;22.688;2022-11-21T07:35:31;9.20;;;2.33;;
32038;SDS011;18549;42.286;22.688;2022-11-21T07:37:58;5.33;;;2.73;;
32038;SDS011;18549;42.286;22.688;2022-11-21T07:40:25;6.67;;;2.60;;
32038;SDS011;18549;42.286;22.688;2022-11-21T07:42:52;4.73;;;2.57;;
32038;SDS011;18549;42.286;22.688;2022-11-21T07:45:19;5.63;;;3.07;;
32038;SDS011;18549;42.286;22.688;2022-11-21T07:47:47;12.83;;;3.77;;
32038;SDS011;18549;42.286;22.688;2022-11-21T07:50:22;7.87;;;2.80;;
32038;SDS011;18549;42.286;22.688;2022-11-21T07:52:49;5.93;;;3.70;;
32038;SDS011;18549;42.286;22.688;2022-11-21T07:55:16;5.93;;;3.60;;
32038;SDS011;18549;42.286;22.688;2022-11-21T07:57:43;8.77;;;3.43;;
32038;SDS011;18549;42.286;22.688;2022-11-21T08:00:10;12.53;;;4.63;;
32038;SDS011;18549;42.286;22.688;2022-11-21T08:02:38;9.63;;;4.33;;
32038;SDS011;18549;42.286;22.688;2022-11-21T08:05:07;6.97;;;4.30;;
32038;SDS011;18549;42.286;22.688;2022-11-21T08:07:34;9.07;;;4.33;;
32038;SDS011;18549;42.286;22.688;2022-11-21T08:10:02;5.73;;;2.67;;
32038;SDS011;18549;42.286;22.688;2022-11-21T08:12:30;7.30;;;3.07;;
32038;SDS011;18549;42.286;22.688;2022-11-21T08:14:57;3.80;;;2.70;;
32038;SDS011;18549;42.286;22.688;2022-11-21T08:17:24;5.83;;;4.03;;
32038;SDS011;18549;42.286;22.688;2022-11-21T08:19:51;18.07;;;8.50;;
32038;SDS011;18549;42.286;22.688;2022-11-21T08:22:19;6.82;;;3.85;;
32038;SDS011;18549;42.286;22.688;2022-11-21T08:24:46;5.17;;;3.97;;
32038;SDS011;18549;42.286;22.688;2022-11-21T08:27:13;7.17;;;5.63;;
32038;SDS011;18549;42.286;22.688;2022-11-21T08:29:44;5.63;;;3.60;;
32038;SDS011;18549;42.286;22.688;2022-11-21T08:32:11;4.43;;;2.83;;
32038;SDS011;18549;42.286;22.688;2022-11-21T08:34:38;4.77;;;3.27;;
32038;SDS011;18549;42.286;22.688;2022-11-21T08:37:04;4.80;;;3.87;;
32038;SDS011;18549;42.286;22.688;2022-11-21T08:39:33;11.33;;;5.00;;
32038;SDS011;18549;42.286;22.688;2022-11-21T08:42:00;12.13;;;8.37;;
32038;SDS011;18549;42.286;22.688;2022-11-21T08:44:30;4.63;;;3.20;;
32038;SDS011;18549;42.286;22.688;2022-11-21T08:46:57;6.97;;;4.27;;
32038;SDS011;18549;42.286;22.688;2022-11-21T08:49:24;7.33;;;3.50;;
32038;SDS011;18549;42.286;22.688;2022-11-21T08:51:51;5.87;;;2.63;;
32038;SDS011;18549;42.286;22.688;2022-11-21T08:54:19;5.23;;;2.23;;
32038;SDS011;18549;42.286;22.688;2022-11-21T08:56:49;3.47;;;2.53;;
32038;SDS011;18549;42.286;22.688;2022-11-21T08:59:18;8.30;;;4.93;;
32038;SDS011;18549;42.286;22.688;2022-11-21T09:01:45;7.10;;;3.77;;
32038;SDS011;18549;42.286;22.688;2022-11-21T09:04:11;6.70;;;4.00;;
32038;SDS011;18549;42.286;22.688;2022-11-21T09:06:38;5.73;;;3.43;;
32038;SDS011;18549;42.286;22.688;2022-11-21T09:09:05;5.33;;;3.00;;
32038;SDS011;18549;42.286;22.688;2022-11-21T09:11:33;8.00;;;2.87;;
32038;SDS011;18549;42.286;22.688;2022-11-21T09:14:02;6.40;;;3.37;;
32038;SDS011;18549;42.286;22.688;2022-11-21T09:16:46;9.57;;;3.90;;
32038;SDS011;18549;42.286;22.688;2022-11-21T09:19:30;5.07;;;3.13;;
32038;SDS011;18549;42.286;22.688;2022-11-21T09:21:57;3.20;;;2.50;;
32038;SDS011;18549;42.286;22.688;2022-11-21T09:24:24;4.07;;;2.80;;
32038;SDS011;18549;42.286;22.688;2022-11-21T09:26:51;3.57;;;2.60;;
32038;SDS011;18549;42.286;22.688;2022-11-21T09:29:19;6.20;;;2.70;;
32038;SDS011;18549;42.286;22.688;2022-11-21T09:31:46;4.07;;;2.90;;
32038;SDS011;18549;42.286;22.688;2022-11-21T09:34:13;5.90;;;3.07;;
32038;SDS011;18549;42.286;22.688;2022-11-21T09:36:40;8.87;;;3.27;;
32038;SDS011;18549;42.286;22.688;2022-11-21T09:39:06;6.07;;;3.13;;
32038;SDS011;18549;42.286;22.688;2022-11-21T09:41:35;2.63;;;2.00;;
32038;SDS011;18549;42.286;22.688;2022-11-21T09:44:21;5.03;;;3.33;;
32038;SDS011;18549;42.286;22.688;2022-11-21T09:47:06;4.73;;;3.00;;
32038;SDS011;18549;42.286;22.688;2022-11-21T09:49:42;7.30;;;4.07;;
32038;SDS011;18549;42.286;22.688;2022-11-21T09:52:14;5.10;;;3.53;;
32038;SDS011;18549;42.286;22.688;2022-11-21T09:54:45;3.60;;;2.10;;
32038;SDS011;18549;42.286;22.688;2022-11-21T09:57:16;7.27;;;3.73;;
32038;SDS011;18549;42.286;22.688;2022-11-21T09:59:45;5.70;;;3.13;;
32038;SDS011;18549;42.286;22.688;2022-11-21T10:02:13;6.83;;;3.77;;
32038;SDS011;18549;42.286;22.688;2022-11-21T10:04:42;4.03;;;3.20;;
32038;SDS011;18549;42.286;22.688;2022-11-21T10:07:10;5.90;;;2.90;;
32038;SDS011;18549;42.286;22.688;2022-11-21T10:09:46;3.40;;;2.30;;
32038;SDS011;18549;42.286;22.688;2022-11-21T10:12:35;7.23;;;2.07;;
32038;SDS011;18549;42.286;22.688;2022-11-21T10:15:18;6.80;;;2.87;;
32038;SDS011;18549;42.286;22.688;2022-11-21T10:21:02;4.70;;;2.40;;
32038;SDS011;18549;42.286;22.688;2022-11-21T10:23:49;5.23;;;3.10;;
32038;SDS011;18549;42.286;22.688;2022-11-21T10:26:30;3.30;;;2.07;;
32038;SDS011;18549;42.286;22.688;2022-11-21T10:29:08;6.27;;;3.00;;
32038;SDS011;18549;42.286;22.688;2022-11-21T10:31:39;3.77;;;2.00;;
32038;SDS011;18549;42.286;22.688;2022-11-21T10:34:09;3.60;;;1.97;;
32038;SDS011;18549;42.286;22.688;2022-11-21T10:36:38;2.37;;;1.40;;
32038;SDS011;18549;42.286;22.688;2022-11-21T10:39:10;4.57;;;2.37;;
32038;SDS011;18549;42.286;22.688;2022-11-21T10:41:46;3.57;;;2.00;;
32038;SDS011;18549;42.286;22.688;2022-11-21T10:44:17;5.23;;;1.87;;
32038;SDS011;18549;42.286;22.688;2022-11-21T10:47:16;2.30;;;1.53;;
32038;SDS011;18549;42.286;22.688;2022-11-21T10:49:52;1.67;;;1.30;;
32038;SDS011;18549;42.286;22.688;2022-11-21T10:52:24;2.00;;;1.53;;
32038;SDS011;18549;42.286;22.688;2022-11-21T10:55:04;1.77;;;1.63;;
32038;SDS011;18549;42.286;22.688;2022-11-21T10:57:35;2.67;;;1.50;;
32038;SDS011;18549;42.286;22.688;2022-11-21T11:00:17;4.17;;;2.30;;
32038;SDS011;18549;42.286;22.688;2022-11-21T11:02:59;3.33;;;2.00;;
32038;SDS011;18549;42.286;22.688;2022-11-21T11:05:31;4.37;;;2.33;;
32038;SDS011;18549;42.286;22.688;2022-11-21T11:08:01;2.17;;;1.70;;
32038;SDS011;18549;42.286;22.688;2022-11-21T11:10:31;4.10;;;2.00;;
32038;SDS011;18549;42.286;22.688;2022-11-21T11:12:58;2.93;;;2.20;;
32038;SDS011;18549;42.286;22.688;2022-11-21T11:15:53;5.63;;;2.17;;
32038;SDS011;18549;42.286;22.688;2022-11-21T11:18:29;5.40;;;2.23;;
32038;SDS011;18549;42.286;22.688;2022-11-21T11:21:08;3.50;;;2.47;;
32038;SDS011;18549;42.286;22.688;2022-11-21T11:23:38;6.43;;;3.30;;
32038;SDS011;18549;42.286;22.688;2022-11-21T11:26:16;7.53;;;3.80;;
32038;SDS011;18549;42.286;22.688;2022-11-21T11:28:47;4.10;;;2.80;;
32038;SDS011;18549;42.286;22.688;2022-11-21T11:31:37;6.23;;;3.03;;
32038;SDS011;18549;42.286;22.688;2022-11-21T11:34:08;4.27;;;2.00;;
32038;SDS011;18549;42.286;22.688;2022-11-21T11:36:40;2.13;;;1.70;;
32038;SDS011;18549;42.286;22.688;2022-11-21T11:39:35;3.70;;;2.23;;
32038;SDS011;18549;42.286;22.688;2022-11-21T11:45:28;3.00;;;2.30;;
32038;SDS011;18549;42.286;22.688;2022-11-21T11:48:24;6.00;;;2.13;;
32038;SDS011;18549;42.286;22.688;2022-11-21T11:50:55;2.50;;;1.33;;
32038;SDS011;18549;42.286;22.688;2022-11-21T11:53:26;2.17;;;1.90;;
32038;SDS011;18549;42.286;22.688;2022-11-21T11:55:58;4.30;;;1.60;;
32038;SDS011;18549;42.286;22.688;2022-11-21T11:58:28;2.20;;;1.90;;
32038;SDS011;18549;42.286;22.688;2022-11-21T12:01:03;3.07;;;2.00;;
32038;SDS011;18549;42.286;22.688;2022-11-21T12:03:37;3.13;;;2.10;;
32038;SDS011;18549;42.286;22.688;2022-11-21T12:06:14;4.10;;;2.50;;
32038;SDS011;18549;42.286;22.688;2022-11-21T12:08:45;3.37;;;2.20;;
32038;SDS011;18549;42.286;22.688;2022-11-21T12:11:21;4.43;;;2.00;;
32038;SDS011;18549;42.286;22.688;2022-11-21T12:14:10;3.20;;;2.50;;
32038;SDS011;18549;42.286;22.688;2022-11-21T12:17:04;4.13;;;2.37;;
32038;SDS011;18549;42.286;22.688;2022-11-21T12:19:32;5.60;;;3.40;;
32038;SDS011;18549;42.286;22.688;2022-11-21T12:22:02;5.70;;;3.77;;
32038;SDS011;18549;42.286;22.688;2022-11-21T12:24:30;4.47;;;2.87;;
32038;SDS011;18549;42.286;22.688;2022-11-21T12:26:59;4.10;;;2.83;;
32038;SDS011;18549;42.286;22.688;2022-11-21T12:29:35;5.70;;;3.90;;
32038;SDS011;18549;42.286;22.688;2022-11-21T12:32:17;5.50;;;2.80;;
32038;SDS011;18549;42.286;22.688;2022-11-21T12:35:01;11.30;;;3.93;;
32038;SDS011;18549;42.286;22.688;2022-11-21T12:37:41;4.90;;;3.00;;
32038;SDS011;18549;42.286;22.688;2022-11-21T12:40:22;6.53;;;2.87;;
32038;SDS011;18549;42.286;22.688;2022-11-21T12:43:01;9.73;;;4.33;;
32038;SDS011;18549;42.286;22.688;2022-11-21T12:45:41;6.30;;;3.70;;
32038;SDS011;18549;42.286;22.688;2022-11-21T12:48:16;8.20;;;4.03;;
32038;SDS011;18549;42.286;22.688;2022-11-21T12:51:22;5.50;;;3.37;;
32038;SDS011;18549;42.286;22.688;2022-11-21T12:54:33;9.07;;;3.47;;
32038;SDS011;18549;42.286;22.688;2022-11-21T12:57:13;10.07;;;4.07;;
32038;SDS011;18549;42.286;22.688;2022-11-21T12:59:49;5.13;;;3.33;;
32038;SDS011;18549;42.286;22.688;2022-11-21T13:02:27;7.13;;;3.27;;
32038;SDS011;18549;42.286;22.688;2022-11-21T13:05:02;5.63;;;3.80;;
32038;SDS011;18549;42.286;22.688;2022-11-21T13:07:32;3.40;;;2.37;;
32038;SDS011;18549;42.286;22.688;2022-11-21T13:10:00;4.40;;;3.83;;
32038;SDS011;18549;42.286;22.688;2022-11-21T13:12:32;2.60;;;1.97;;
32038;SDS011;18549;42.286;22.688;2022-11-21T13:15:12;3.10;;;1.93;;
32038;SDS011;18549;42.286;22.688;2022-11-21T13:17:46;3.73;;;2.70;;
32038;SDS011;18549;42.286;22.688;2022-11-21T13:20:18;4.97;;;2.83;;
32038;SDS011;18549;42.286;22.688;2022-11-21T13:22:55;3.70;;;2.30;;
32038;SDS011;18549;42.286;22.688;2022-11-21T13:25:43;9.77;;;3.87;;
32038;SDS011;18549;42.286;22.688;2022-11-21T13:28:30;8.83;;;3.83;;
32038;SDS011;18549;42.286;22.688;2022-11-21T13:30:59;3.83;;;2.80;;
32038;SDS011;18549;42.286;22.688;2022-11-21T13:33:44;7.40;;;2.70;;
32038;SDS011;18549;42.286;22.688;2022-11-21T13:42:07;4.57;;;2.53;;
32038;SDS011;18549;42.286;22.688;2022-11-21T13:44:52;6.10;;;5.10;;
32038;SDS011;18549;42.286;22.688;2022-11-21T13:50:36;2.57;;;2.27;;
32038;SDS011;18549;42.286;22.688;2022-11-21T13:56:27;5.97;;;4.43;;
32038;SDS011;18549;42.286;22.688;2022-11-21T13:59:05;8.90;;;5.43;;
32038;SDS011;18549;42.286;22.688;2022-11-21T14:01:55;23.53;;;18.30;;
32038;SDS011;18549;42.286;22.688;2022-11-21T14:07:36;12.43;;;6.00;;
32038;SDS011;18549;42.286;22.688;2022-11-21T14:10:05;3.27;;;2.90;;
32038;SDS011;18549;42.286;22.688;2022-11-21T14:12:45;4.93;;;3.60;;
32038;SDS011;18549;42.286;22.688;2022-11-21T14:15:23;6.13;;;4.77;;
32038;SDS011;18549;42.286;22.688;2022-11-21T14:17:55;7.83;;;4.90;;
32038;SDS011;18549;42.286;22.688;2022-11-21T14:20:23;7.13;;;4.60;;
32038;SDS011;18549;42.286;22.688;2022-11-21T14:22:53;7.07;;;5.33;;
32038;SDS011;18549;42.286;22.688;2022-11-21T14:25:22;12.20;;;6.80;;
32038;SDS011;18549;42.286;22.688;2022-11-21T14:27:53;5.70;;;4.50;;
32038;SDS011;18549;42.286;22.688;2022-11-21T14:30:30;10.90;;;6.50;;
32038;SDS011;18549;42.286;22.688;2022-11-21T14:35:52;22.33;;;13.63;;
32038;SDS011;18549;42.286;22.688;2022-11-21T14:38:21;21.47;;;15.80;;
32038;SDS011;18549;42.286;22.688;2022-11-21T14:40:48;18.10;;;13.70;;
32038;SDS011;18549;42.286;22.688;2022-11-21T14:43:28;9.93;;;8.60;;
32038;SDS011;18549;42.286;22.688;2022-11-21T14:45:58;9.73;;;7.50;;
32038;SDS011;18549;42.286;22.688;2022-11-21T14:48:25;12.93;;;8.30;;
32038;SDS011;18549;42.286;22.688;2022-11-21T14:50:54;13.30;;;9.93;;
32038;SDS011;18549;42.286;22.688;2022-11-21T14:53:23;11.63;;;8.90;;
32038;SDS011;18549;42.286;22.688;2022-11-21T14:55:50;9.13;;;7.63;;
32038;SDS011;18549;42.286;22.688;2022-11-21T14:58:17;7.90;;;6.27;;
32038;SDS011;18549;42.286;22.688;2022-11-21T15:03:31;7.60;;;6.43;;
32038;SDS011;18549;42.286;22.688;2022-11-21T15:05:58;16.43;;;14.67;;
32038;SDS011;18549;42.286;22.688;2022-11-21T15:08:25;8.33;;;6.70;;
32038;SDS011;18549;42.286;22.688;2022-11-21T15:10:52;15.67;;;9.13;;
32038;SDS011;18549;42.286;22.688;2022-11-21T15:13:21;19.63;;;11.03;;
32038;SDS011;18549;42.286;22.688;2022-11-21T15:15:54;6.40;;;4.97;;